Redondo, Valles Caldera, New Mexico Weather observations

Data are for 10 minute period ending at time listed.
 Day   Time   Solar   Ave.   Ave.  Ave.  Vector  Max.   Baro.   Total    
  of    of     Rad.   Air    Rel.  Wind   Wind   Wind  Press.  Precip.   
Year   Day            Temp.  Hum.  Speed  Dir.   Gust                    
2017   (MST)  Kw/m2    F      %     mph   deg.    mph    mb.     in.     
-------------------------------------------------------------------------
  86    8:30   0.49   38.0    41    3.4   174     7.8   685.6    0.00 
  86    8:40   0.53   39.0    40    3.5   182     7.2   685.7    0.00 
  86    8:50   0.56   39.4    40    3.2   174     7.2   685.8    0.00 
  86    9:00   0.60   39.1    41    3.1   154     6.0   685.8    0.00 
  86    9:10   0.63   38.7    42    3.4   119     7.2   685.9    0.00 
  86    9:20   0.66   39.0    42    3.2   146     7.2   686.1    0.00 
  86    9:30   0.69   40.7    41    3.0   132     7.8   686.0    0.00 
  86    9:40   0.71   40.5    42    3.1   143     7.8   686.0    0.00 
  86    9:50   0.74   40.9    41    3.3    60     7.2   686.0    0.00 
  86   10:00   0.77   41.3    40    2.7   116     8.4   686.0    0.00 
  86   10:10   0.79   40.9    40    3.5   138     6.6   686.1    0.00 
  86   10:20   0.82   43.3    36    3.0   141     7.2   685.9    0.00 
  86   10:30   0.88   42.8    37    3.5   148     7.8   685.9    0.00 
  86   10:40   0.85   43.1    36    4.1   108     8.4   685.9    0.00 
  86   10:50   0.89   41.9    37    4.0   100    10.2   685.8    0.00 
  86   11:00   0.93   42.8    36    3.8   104     9.0   685.6    0.00 
  86   11:10   0.86   41.9    36    3.9   119     7.8   685.6    0.00 
  86   11:20   0.81   40.7    38    4.3   116     9.0   685.5    0.00 
  86   11:30   0.88   41.2    37    4.2    98    10.2   685.4    0.00 
  86   11:40   0.98   41.6    37    4.3   132    10.2   685.3    0.00 
  86   11:50   0.94   43.1    36    3.8   100     9.0   685.2    0.00 
  86   12:00   0.94   42.3    36    3.5   119    10.8   685.1    0.00 
  86   12:10   0.97   43.8    34    3.6   110     8.4   685.0    0.00 
  86   12:20   1.00   42.4    35    4.2   138    11.3   685.0    0.00 
  86   12:30   1.01   44.2    33    3.5   131     6.6   684.8    0.00 
  86   12:40   1.04   45.3    31    2.8   117     7.2   684.6    0.00 
  86   12:50   0.68   43.7    33    3.5    86     7.8   684.4    0.00 
  86   13:00   0.46   40.0    38    4.1   117    10.8   684.4    0.00 
  86   13:10   0.29   39.3    39    2.9   101     6.6   684.3    0.00 
  86   13:20   0.67   41.3    36    3.5    92    13.1   684.3    0.00 
  86   13:30   0.70   42.8    33    4.1   142     9.0   684.2    0.00 
  86   13:40   0.91   44.1    32    4.1   105    11.3   684.0    0.00 
  86   13:50   0.88   46.0    32    3.9    73     8.4   683.7    0.00 
  86   14:00   0.87   43.9    35    4.9   115    11.9   683.5    0.00 
  86   14:10   0.77   44.6    34    4.7    95    11.9   683.4    0.00 
  86   14:20   0.38   41.5    40    4.5    91    10.2   683.3    0.00 
  86   14:30   0.40   40.3    41    5.1    85    13.1   683.5    0.00 
  86   14:40   0.27   40.1    42    5.3    62    11.3   683.5    0.00 
  86   14:50   0.17   38.2    44    4.5    65    10.8   683.5    0.00 
  86   15:00   0.26   38.8    44    4.4    57    10.8   683.5    0.00 
  86   15:10   0.58   40.3    43    5.6    79    12.5   683.4    0.00 
  86   15:20   0.28   39.4    44    4.6   124    10.8   683.3    0.00 
  86   15:30   0.21   38.4    46    4.2   117    11.3   683.3    0.00 
  86   15:40   0.18   37.0    49    5.7   117    13.1   683.3    0.00 
  86   15:50   0.17   36.7    51    4.7    96    10.2   683.2    0.00 
  86   16:00   0.12   36.5    52    3.8    88     9.0   683.2    0.00 
  86   16:10   0.08   35.6    56    5.7   104    16.7   683.1    0.00 
  86   16:20   0.08   33.8    67    5.3   108    13.1   683.1    0.00 
  86   16:30   0.06   32.7    74    3.9   183    10.8   683.2    0.00 
  86   16:40   0.09   32.5    75    2.9   158     6.6   683.1    0.00 
  86   16:50   0.07   32.7    75    1.7   154     4.2   683.1    0.00 
  86   17:00   0.07   32.4    78    2.3   186     6.0   683.1    0.00 
  86   17:10   0.11   32.6    79    2.1   194     4.8   683.0    0.00 
  86   17:20   0.21   36.9    70    2.3   224     5.4   682.8    0.00 
  86   17:30   0.03   36.7    68    1.4   221     3.6   682.8    0.00 
  86   17:40   0.02   32.9    76    0.6   297     4.2   682.8    0.00 
  86   17:50   0.02   31.6    75    1.1    11     3.6   682.7    0.00 
  86   18:00   0.04   32.5    70    0.9    63     3.6   682.7    0.00 
  86   18:10   0.01   31.4    82    0.9   182     4.8   682.9    0.00 
  86   18:20   0.01   29.7    89    1.4   154     4.2   683.0    0.00 
  86   18:30   0.00   29.2    91    1.6   155     4.8   682.9    0.00 
  86   18:40   0.00   28.9    92    2.4   155     6.0   683.0    0.00 
  86   18:50   0.00   28.8    92    1.9   150     5.4   683.1    0.00 
  86   19:00   0.00   28.6    93    0.9   166     4.8   683.1    0.00 
  86   19:10   0.00   28.4    94    0.6   128     3.0   683.1    0.00 
  86   19:20   0.00   28.3    95    0.5    78     3.6   683.2    0.00 
  86   19:30   0.00   28.5    95    1.7    41     3.6   683.2    0.00 
  86   19:40   0.00   29.1    92    3.4    28     7.8   683.2    0.00 
  86   19:50   0.00   29.6    90    4.0    36     6.6   683.0    0.00 
  86   20:00   0.00   29.4    91    4.0    31     7.8   682.9    0.00 
  86   20:10   0.00   30.4    88    4.8    58    11.3   682.9    0.00 
  86   20:20   0.00   31.6    85    3.5    57    10.8   682.9    0.00 
  86   20:30   0.00   31.6    84    4.8    40    11.3   682.9    0.00 
  86   20:40   0.00   31.8    84    3.6    40    11.3   683.0    0.00 
  86   20:50   0.00   31.4    86    4.2    56     8.4   683.0    0.00 
  86   21:00   0.00   30.9    88    3.4    74     8.4   683.2    0.00 
  86   21:10   0.00   30.5    89    2.8    55     7.8   683.2    0.00 
  86   21:20   0.00   30.5    88    2.8    67     9.0   683.2    0.00 
  86   21:30   0.00   30.3    88    2.7   142     7.2   683.2    0.00 
  86   21:40   0.00   30.1    88    3.1   175     9.0   683.2    0.00 
  86   21:50   0.00   30.1    86    2.9   131    10.2   683.1    0.00 
  86   22:00   0.00   30.1    84    2.2   152     5.4   682.9    0.00 
  86   22:10   0.00   29.9    81    2.5   110    10.2   682.9    0.00 
  86   22:20   0.00   30.2    75    3.2   121     9.6   682.8    0.00 
  86   22:30   0.00   30.3    75    3.8   144     9.0   682.8    0.00 
  86   22:40   0.00   30.2    78    3.2   148     7.2   682.7    0.00 
  86   22:50   0.00   30.0    80    3.9   102     7.8   682.7    0.00 
  86   23:00   0.00   30.0    79    2.9    83     6.6   682.7    0.00 
  86   23:10   0.00   29.9    79    2.8    73     7.2   682.6    0.00 
  86   23:20   0.00   29.7    79    1.7   103     4.8   682.6    0.00 
  86   23:30   0.00   29.4    80    2.7   142     6.6   682.5    0.00 
  86   23:40   0.00   29.4    80    2.7   131     8.4   682.4    0.00 
  86   23:50   0.00   29.4    81    3.0    75     7.2   682.4    0.00 
  87    0:00   0.00   29.4    81    3.4    56     7.8   682.4    0.00 
  87    0:10   0.00   29.3    82    3.6    60     7.2   682.3    0.00 
  87    0:20   0.00   28.9    83    2.9    46     7.8   682.2    0.00 
  87    0:30   0.00   28.9    83    4.1    67     9.6   682.0    0.00 
  87    0:40   0.00   29.2    83    2.4    66     6.6   682.0    0.00 
  87    0:50   0.00   29.1    83    3.3    80     9.6   682.0    0.00 
  87    1:00   0.00   29.0    83    3.2   114     9.0   681.9    0.00 
  87    1:10   0.00   28.8    85    3.1   125     7.2   681.8    0.00 
  87    1:20   0.00   28.5    86    2.9   153     7.8   681.7    0.00 
  87    1:30   0.00   28.2    86    3.1   180    10.2   681.6    0.00 
  87    1:40   0.00   27.9    87    3.1   170     6.0   681.5    0.00 
  87    1:50   0.00   27.8    88    3.6   172     8.4   681.5    0.00 
  87    2:00   0.00   27.6    90    2.0   182     6.0   681.4    0.00 
  87    2:10   0.00   27.2    91    2.4   189     7.2   681.3    0.00 
  87    2:20   0.00   26.5    91    1.8   189     5.4   681.1    0.00 
  87    2:30   0.00   25.6    91    0.7   192     2.4   681.0    0.00 
  87    2:40   0.00   25.1    92    1.2   195     4.2   681.0    0.00 
  87    2:50   0.00   24.5    92    0.0     0     0.0   680.8    0.00 
  87    3:00   0.00   23.5    91    0.0     0     0.0   680.8    0.00 
  87    3:10   0.00   22.8    92    0.1   206     1.8   680.7    0.00 
  87    3:20   0.00   22.6    92    0.3   214     1.8   680.7    0.00 
  87    3:30   0.00   23.2    92    1.1   201     3.0   680.7    0.00 
  87    3:40   0.00   23.9    90    0.2   149     2.4   680.7    0.00 
  87    3:50   0.00   23.9    88    0.1   237     2.4   680.6    0.00 
  87    4:00   0.00   23.6    89    0.0   236     1.2   680.6    0.00 
  87    4:10   0.00   23.9    91    0.8   159     4.2   680.5    0.00 
  87    4:20   0.00   23.9    90    0.1   164     2.4   680.3    0.00 
  87    4:30   0.00   23.4    90    0.0     0     0.0   680.3    0.00 
  87    4:40   0.00   22.7    90    0.0     0     0.0   680.3    0.00 
  87    4:50   0.00   22.4    92    0.0   177     1.8   680.2    0.00 
  87    5:00   0.00   23.3    93    0.9   181     4.8   680.1    0.00 
  87    5:10   0.00   23.9    90    0.6   187     3.0   680.1    0.00 
  87    5:20   0.00   23.8    90    0.8   193     4.8   680.0    0.00 
  87    5:30   0.00   23.2    90    0.2   174     1.8   679.9    0.00 
  87    5:40   0.00   22.6    90    0.2   173     1.8   679.8    0.00 
  87    5:50   0.00   22.6    91    0.1   151     1.8   679.8    0.00 
  87    6:00   0.00   22.1    91    0.0   160     1.2   679.9    0.00 
  87    6:10   0.01   21.9    92    0.0     0     0.0   679.9    0.00 
  87    6:20   0.02   22.5    93    0.0     0     0.0   679.9    0.00 
  87    6:30   0.02   23.5    90    0.4    46     1.8   680.1    0.00 
  87    6:40   0.02   24.4    88    0.5    41     3.6   680.1    0.00 
  87    6:50   0.03   24.5    89    0.3    56     3.0   680.2    0.00 
  87    7:00   0.07   25.0    88    0.2   117     2.4   680.2    0.00 
  87    7:10   0.09   25.8    87    0.2   128     3.0   680.2    0.00 
  87    7:20   0.09   26.6    84    0.0    34     1.2   680.0    0.00 
  87    7:30   0.07   26.3    83    0.3    22     1.8   680.0    0.00 
  87    7:40   0.06   26.1    84    0.9    26     2.4   680.1    0.00 
  87    7:50   0.05   25.9    84    1.5   333     3.6   680.1    0.00 
  87    8:00   0.04   25.6    86    1.0   326     3.0   680.0    0.00 
  87    8:10   0.06   25.6    86    1.3     0     3.0   680.0    0.00 
  87    8:20   0.08   26.0    84    0.1    76     1.8   680.0    0.00 

Return to Redondo, Valles Caldera graphs page.


Western Regional Climate Center,wrcc@dri.edu